Time;durP1;ratioP1;P1;durP2;ratioP2;P2;SDS_P1;SDS_P2;PMS_P1;PMS_P2;Temp;Humidity;BMP_temperature;BMP_pressure;BME280_temperature;BME280_humidity;BME280_pressure;Samples;Min_cycle;Max_cycle;Signal;HPM_P1;HPM_P2
2021/04/01 00:00:18;;;;;;;13.23;4.95;;;12.50;52.50;;;;;;5036406;28;20069;-76
2021/04/01 00:02:49;;;;;;;11.25;5.00;;;12.60;52.40;;;;;;5036293;28;20025;-77
2021/04/01 00:05:15;;;;;;;10.98;5.03;;;12.60;52.30;;;;;;5036358;28;20025;-76
2021/04/01 00:07:40;;;;;;;16.10;5.10;;;12.60;52.40;;;;;;5036319;28;20034;-76
2021/04/01 00:10:10;;;;;;;15.25;4.53;;;12.60;52.50;;;;;;5036163;28;20030;-76
2021/04/01 00:12:36;;;;;;;11.30;4.80;;;12.50;52.60;;;;;;5036239;28;20045;-76
2021/04/01 00:15:02;;;;;;;16.80;5.82;;;12.60;52.60;;;;;;5036119;28;20470;-76
2021/04/01 00:17:28;;;;;;;14.45;4.60;;;12.60;52.50;;;;;;5036162;28;20021;-75
2021/04/01 00:19:53;;;;;;;12.20;4.80;;;12.50;52.50;;;;;;5018086;28;20513;-75
2021/04/01 00:22:19;;;;;;;12.10;4.57;;;12.50;52.60;;;;;;5035994;28;20026;-76
2021/04/01 00:24:44;;;;;;;15.85;5.40;;;12.50;52.50;;;;;;5035975;28;20380;-76
2021/04/01 00:27:10;;;;;;;10.68;5.03;;;12.60;52.30;;;;;;5036034;28;20492;-76
2021/04/01 00:29:36;;;;;;;9.82;4.97;;;12.60;52.20;;;;;;5035948;28;20025;-76
2021/04/01 00:32:02;;;;;;;8.38;4.57;;;12.50;52.30;;;;;;5035824;28;20049;-76
2021/04/01 00:34:28;;;;;;;11.07;4.70;;;12.40;52.70;;;;;;5035910;28;20474;-76
2021/04/01 00:36:53;;;;;;;10.20;4.60;;;12.20;53.10;;;;;;5017905;28;20040;-76
2021/04/01 00:39:19;;;;;;;12.13;4.97;;;12.10;53.70;;;;;;5035774;28;20029;-76
2021/04/01 00:41:44;;;;;;;9.10;4.45;;;12.00;53.90;;;;;;5035582;28;20103;-76
2021/04/01 00:44:10;;;;;;;13.50;5.32;;;12.00;54.10;;;;;;5035664;28;20056;-77
2021/04/01 00:46:36;;;;;;;15.82;5.20;;;12.00;54.20;;;;;;5035483;28;20025;-77
2021/04/01 00:49:02;;;;;;;15.52;4.55;;;11.90;54.30;;;;;;5035494;28;20435;-76
2021/04/01 00:51:27;;;;;;;11.82;4.30;;;12.00;54.30;;;;;;5035187;28;20109;-75
2021/04/01 00:53:53;;;;;;;11.43;4.30;;;11.90;54.70;;;;;;5035471;28;20026;-76
2021/04/01 00:56:21;;;;;;;11.85;4.38;;;11.80;55.00;;;;;;5035486;28;20053;-77
2021/04/01 00:58:47;;;;;;;7.57;3.50;;;11.70;55.30;;;;;;5035279;28;20029;-76
2021/04/01 01:03:44;;;;;;;10.10;4.43;;;11.70;55.40;;;;;;5035959;28;20029;-76
2021/04/01 01:06:09;;;;;;;11.68;4.93;;;11.60;55.40;;;;;;5057051;28;20017;-76
2021/04/01 01:08:35;;;;;;;9.45;4.38;;;11.70;55.60;;;;;;5047665;28;20053;-76
2021/04/01 01:11:00;;;;;;;13.23;4.65;;;11.70;55.40;;;;;;5036137;28;20415;-76
2021/04/01 01:13:26;;;;;;;11.40;4.88;;;11.80;55.40;;;;;;5035560;28;20470;-76
2021/04/01 01:15:52;;;;;;;7.47;4.25;;;11.90;55.20;;;;;;5035027;28;20060;-76
2021/04/01 01:18:17;;;;;;;10.40;4.82;;;11.90;54.90;;;;;;5035209;28;20028;-76
2021/04/01 01:20:43;;;;;;;14.48;5.38;;;11.90;54.70;;;;;;5034861;28;20049;-76
2021/04/01 01:23:10;;;;;;;9.75;4.85;;;11.90;54.50;;;;;;5035008;28;20022;-77
2021/04/01 01:25:35;;;;;;;10.10;4.85;;;11.80;54.40;;;;;;5034888;28;20039;-76
2021/04/01 01:28:02;;;;;;;10.68;4.53;;;11.90;54.50;;;;;;5034842;28;20025;-76
2021/04/01 01:30:28;;;;;;;9.77;4.82;;;11.90;54.40;;;;;;5034807;28;20160;-77
2021/04/01 01:32:59;;;;;;;7.95;4.57;;;11.90;54.30;;;;;;5034902;28;20100;-77
2021/04/01 01:35:31;;;;;;;13.80;5.22;;;11.90;54.10;;;;;;5034760;28;20040;-77
2021/04/01 01:38:07;;;;;;;7.82;4.75;;;11.90;53.90;;;;;;5034739;28;20025;-77
2021/04/01 01:40:34;;;;;;;12.38;5.03;;;11.90;54.00;;;;;;5034523;28;20026;-77
2021/04/01 01:43:02;;;;;;;14.68;5.25;;;11.90;54.10;;;;;;5034631;28;20047;-76
2021/04/01 01:45:29;;;;;;;13.30;5.07;;;11.90;54.10;;;;;;5034372;28;20018;-75
2021/04/01 01:47:56;;;;;;;11.30;4.68;;;11.90;54.00;;;;;;5034456;28;20378;-77
2021/04/01 01:50:23;;;;;;;9.13;4.88;;;11.80;54.10;;;;;;5034258;28;20029;-76
2021/04/01 01:52:48;;;;;;;12.82;4.70;;;11.90;54.10;;;;;;5034281;28;20036;-77
2021/04/01 01:55:15;;;;;;;10.32;4.03;;;11.90;54.10;;;;;;5034148;28;20037;-76
2021/04/01 01:57:41;;;;;;;6.97;3.45;;;11.80;54.30;;;;;;5034257;28;20083;-77
2021/04/01 02:00:20;;;;;;;9.18;4.13;;;11.80;54.40;;;;;;5033362;28;20048;-76
2021/04/01 02:02:54;;;;;;;12.15;4.13;;;11.60;55.50;;;;;;5034063;28;20029;-76
2021/04/01 02:05:21;;;;;;;15.55;4.30;;;11.70;55.10;;;;;;5035111;28;20519;-76
2021/04/01 02:07:47;;;;;;;6.47;3.83;;;11.60;55.20;;;;;;5041891;28;20063;-76
2021/04/01 02:10:15;;;;;;;12.45;4.47;;;11.50;55.80;;;;;;5040030;28;20075;-77
2021/04/01 02:12:41;;;;;;;9.57;4.65;;;11.40;56.40;;;;;;5033774;28;20039;-77
2021/04/01 02:15:14;;;;;;;6.70;4.35;;;11.30;56.60;;;;;;5033738;28;20036;-76
2021/04/01 02:17:40;;;;;;;12.95;4.90;;;11.30;56.70;;;;;;5033680;28;20025;-77
2021/04/01 02:20:07;;;;;;;14.50;5.30;;;11.20;56.60;;;;;;5033690;28;20055;-77
2021/04/01 02:22:33;;;;;;;12.02;4.32;;;11.30;56.50;;;;;;5033725;28;20087;-77
2021/04/01 02:24:59;;;;;;;10.57;5.15;;;11.30;56.20;;;;;;5033608;28;20033;-77
2021/04/01 02:27:25;;;;;;;14.68;4.75;;;11.40;55.80;;;;;;5033503;28;20098;-76
2021/04/01 02:29:51;;;;;;;10.05;4.75;;;11.40;55.50;;;;;;5033377;28;20501;-76
2021/04/01 02:32:17;;;;;;;9.07;4.40;;;11.40;55.30;;;;;;5033506;28;20021;-76
2021/04/01 02:34:43;;;;;;;11.20;4.47;;;11.40;55.30;;;;;;5015930;28;20124;-76
2021/04/01 02:37:09;;;;;;;8.88;4.38;;;11.50;55.40;;;;;;5033561;28;20068;-77
2021/04/01 02:39:34;;;;;;;9.95;4.05;;;11.40;55.20;;;;;;5015637;28;20056;-76
2021/04/01 02:42:00;;;;;;;10.38;4.45;;;11.40;55.20;;;;;;5033230;28;20021;-76
2021/04/01 02:44:25;;;;;;;7.50;4.00;;;11.40;55.10;;;;;;5033498;28;20029;-76
2021/04/01 02:46:51;;;;;;;13.75;5.07;;;11.40;55.20;;;;;;5033322;28;20044;-77
2021/04/01 02:49:16;;;;;;;9.65;4.28;;;11.40;55.30;;;;;;5015524;28;20021;-77
2021/04/01 02:51:42;;;;;;;9.63;4.53;;;11.40;56.00;;;;;;5033377;28;20021;-77
2021/04/01 02:54:08;;;;;;;11.52;4.20;;;11.40;55.00;;;;;;5015376;28;20171;-77
2021/04/01 02:56:33;;;;;;;9.88;4.57;;;11.40;54.80;;;;;;5033332;28;20021;-77
2021/04/01 02:58:59;;;;;;;9.80;3.90;;;11.40;54.80;;;;;;5015533;28;20025;-76
2021/04/01 03:01:25;;;;;;;7.40;3.90;;;11.40;54.80;;;;;;5033130;28;20033;-77
2021/04/01 03:03:54;;;;;;;10.88;4.28;;;11.40;54.80;;;;;;5033119;28;20017;-77
2021/04/01 03:06:20;;;;;;;10.55;4.05;;;11.40;54.70;;;;;;5033086;28;20044;-77
2021/04/01 03:08:46;;;;;;;14.40;4.78;;;11.50;54.50;;;;;;5033067;28;20021;-77
2021/04/01 03:11:12;;;;;;;11.18;4.72;;;11.50;54.60;;;;;;5032068;28;20044;-76
2021/04/01 03:13:37;;;;;;;9.60;4.65;;;11.50;54.50;;;;;;5033137;28;20032;-77
2021/04/01 03:16:03;;;;;;;10.52;4.70;;;11.50;54.40;;;;;;5032911;28;20030;-77
2021/04/01 03:18:28;;;;;;;10.25;4.38;;;11.50;54.50;;;;;;5032963;28;20025;-76
2021/04/01 03:20:54;;;;;;;9.43;4.70;;;11.40;54.50;;;;;;5032718;28;20105;-76
2021/04/01 03:23:20;;;;;;;10.15;4.28;;;11.50;54.50;;;;;;5015355;28;20022;-77
2021/04/01 03:25:45;;;;;;;14.32;4.90;;;11.40;54.50;;;;;;5032722;28;20029;-77
2021/04/01 03:28:12;;;;;;;9.75;4.20;;;11.50;54.50;;;;;;5032814;28;20151;-76
2021/04/01 03:30:43;;;;;;;9.95;4.20;;;11.50;54.30;;;;;;5032816;28;20021;-76
2021/04/01 03:33:09;;;;;;;13.40;4.88;;;11.50;54.10;;;;;;5032810;28;20029;-75
2021/04/01 03:35:35;;;;;;;15.40;5.05;;;11.50;54.00;;;;;;5032854;28;20430;-76
2021/04/01 03:38:02;;;;;;;15.38;4.15;;;11.40;54.00;;;;;;5032742;28;20036;-76
2021/04/01 03:40:27;;;;;;;9.82;4.07;;;11.40;54.10;;;;;;5032575;28;20469;-75
2021/04/01 03:42:53;;;;;;;10.02;4.50;;;11.40;54.20;;;;;;5032705;28;20080;-75
2021/04/01 03:45:19;;;;;;;9.95;4.72;;;11.40;54.30;;;;;;5032832;28;20053;-76
2021/04/01 03:47:45;;;;;;;10.93;5.00;;;11.40;54.40;;;;;;5032776;28;20561;-75
2021/04/01 03:50:12;;;;;;;7.20;4.30;;;11.30;54.60;;;;;;5042816;28;20080;-76
2021/04/01 03:52:39;;;;;;;10.73;4.60;;;11.30;54.70;;;;;;5050575;28;20017;-76
2021/04/01 03:57:45;;;;;;;15.23;4.93;;;11.30;54.70;;;;;;5034816;28;20029;-76
2021/04/01 04:00:16;;;;;;;11.07;4.75;;;11.40;54.60;;;;;;5032962;28;20025;-76
2021/04/01 04:05:37;;;;;;;10.23;4.45;;;11.30;54.90;;;;;;5032637;28;20022;-76
2021/04/01 04:10:47;;;;;;;12.90;5.15;;;11.10;55.40;;;;;;5032576;28;20032;-76
2021/04/01 04:15:51;;;;;;;10.98;4.43;;;11.10;56.50;;;;;;5026113;28;20028;-76
2021/04/01 04:18:17;;;;;;;11.38;4.20;;;10.90;56.90;;;;;;5032522;28;20021;-76
2021/04/01 04:20:43;;;;;;;11.82;4.30;;;10.90;57.30;;;;;;5032166;28;20056;-77
2021/04/01 04:23:11;;;;;;;11.98;4.70;;;10.70;57.70;;;;;;5017889;28;20022;-76
2021/04/01 04:25:37;;;;;;;9.20;4.68;;;10.70;58.00;;;;;;5037254;28;20030;-77
2021/04/01 04:30:35;;;;;;;7.63;4.53;;;10.60;58.40;;;;;;5036616;28;20033;-77
2021/04/01 04:33:01;;;;;;;10.32;4.70;;;10.60;58.40;;;;;;5035996;28;20049;-77
2021/04/01 04:35:27;;;;;;;11.35;5.20;;;10.60;58.40;;;;;;5035770;28;20025;-77
2021/04/01 04:37:52;;;;;;;13.18;6.22;;;10.50;58.40;;;;;;5036213;28;20036;-77
2021/04/01 04:40:18;;;;;;;11.23;5.78;;;10.60;58.70;;;;;;5035969;28;20030;-75
2021/04/01 04:42:44;;;;;;;15.23;4.90;;;10.60;58.80;;;;;;5035647;28;20359;-76
2021/04/01 04:45:10;;;;;;;9.07;5.07;;;10.50;59.30;;;;;;5035639;28;20078;-74
2021/04/01 04:47:36;;;;;;;14.32;5.25;;;10.60;58.20;;;;;;5035498;28;20052;-75
2021/04/01 04:50:02;;;;;;;8.23;4.90;;;10.70;58.00;;;;;;5035474;28;20029;-76
2021/04/01 04:52:29;;;;;;;7.63;4.53;;;10.70;57.80;;;;;;5035316;28;20033;-77
2021/04/01 04:54:54;;;;;;;12.10;5.18;;;10.70;57.80;;;;;;5017677;28;20025;-74
2021/04/01 04:57:28;;;;;;;16.83;5.43;;;10.60;58.20;;;;;;5017565;28;20028;-74
2021/04/01 05:05:06;;;;;;;10.75;4.50;;;10.50;58.90;;;;;;5035162;28;20028;-75
2021/04/01 05:07:31;;;;;;;12.85;5.68;;;10.50;58.90;;;;;;5034281;28;20048;-75
2021/04/01 05:09:57;;;;;;;17.15;5.40;;;10.60;58.80;;;;;;5034958;28;20477;-74
2021/04/01 05:12:22;;;;;;;11.15;5.65;;;10.50;58.80;;;;;;5035048;28;20030;-76
2021/04/01 05:14:48;;;;;;;10.70;5.07;;;10.40;59.30;;;;;;5034806;28;20025;-74
2021/04/01 05:17:17;;;;;;;12.07;5.45;;;10.40;59.40;;;;;;5034968;28;20048;-75
2021/04/01 05:19:43;;;;;;;13.40;5.05;;;10.40;59.00;;;;;;5034644;28;20048;-73
2021/04/01 05:22:19;;;;;;;12.77;5.57;;;10.50;58.70;;;;;;5035043;28;20104;-74
2021/04/01 05:24:44;;;;;;;12.45;5.10;;;10.60;58.20;;;;;;5027518;28;20072;-73
2021/04/01 05:29:57;;;;;;;12.35;6.25;;;10.80;58.00;;;;;;5034776;28;20072;-72
2021/04/01 05:32:28;;;;;;;13.30;5.05;;;10.80;58.10;;;;;;5018553;28;20219;-73
2021/04/01 05:34:55;;;;;;;18.60;5.63;;;10.70;58.30;;;;;;5037681;28;20021;-74
2021/04/01 05:37:26;;;;;;;10.77;4.93;;;10.70;58.60;;;;;;5038740;28;20025;-74
2021/04/01 05:39:53;;;;;;;13.63;5.28;;;10.80;58.60;;;;;;5036703;28;20092;-74
2021/04/01 05:42:21;;;;;;;12.05;5.70;;;10.90;58.60;;;;;;5035423;28;20029;-73
2021/04/01 05:44:53;;;;;;;13.30;5.10;;;10.90;58.40;;;;;;5016536;28;20116;-76
2021/04/01 06:01:07;;;;;;;10.05;4.32;;;11.30;56.60;;;;;;5034869;28;20049;-75
2021/04/01 06:04:11;;;;;;;9.45;4.80;;;11.40;56.20;;;;;;5034874;28;20159;-75
2021/04/01 06:06:43;;;;;;;11.52;5.38;;;11.60;55.60;;;;;;5033829;28;20111;-75
2021/04/01 06:09:23;;;;;;;11.13;5.25;;;11.70;55.20;;;;;;5034741;28;20026;-75
2021/04/01 06:11:56;;;;;;;12.68;5.45;;;11.90;54.70;;;;;;5034630;28;20158;-74
2021/04/01 06:14:33;;;;;;;12.55;5.32;;;12.00;54.40;;;;;;5034315;28;20084;-77
2021/04/01 06:17:04;;;;;;;14.07;6.72;;;12.00;54.00;;;;;;5034170;28;20018;-76
2021/04/01 06:19:35;;;;;;;15.77;6.47;;;12.00;53.60;;;;;;5017550;28;20041;-76
2021/04/01 06:22:06;;;;;;;18.45;5.90;;;12.10;53.40;;;;;;5038657;28;20029;-75
2021/04/01 06:24:34;;;;;;;15.95;5.85;;;12.20;53.00;;;;;;5051315;28;20024;-74
2021/04/01 06:27:22;;;;;;;14.98;5.85;;;12.20;52.60;;;;;;5016436;28;20028;-76
2021/04/01 06:33:06;;;;;;;12.60;5.95;;;12.40;52.40;;;;;;4954213;29;20612;-74
2021/04/01 06:40:50;;;;;;;12.85;6.00;;;12.80;51.10;;;;;;5038353;28;20474;-76
2021/04/01 06:43:23;;;;;;;13.73;6.05;;;12.90;50.90;;;;;;5038525;28;20144;-76
2021/04/01 06:45:57;;;;;;;11.55;5.35;;;13.10;50.50;;;;;;5037472;28;20059;-76
2021/04/01 06:48:28;;;;;;;18.13;6.00;;;13.30;50.30;;;;;;5036042;28;20022;-73
2021/04/01 06:51:05;;;;;;;19.15;6.45;;;13.50;50.30;;;;;;5016882;28;20021;-76
2021/04/01 06:53:54;;;;;;;14.98;6.47;;;13.60;49.60;;;;;;5016791;28;20025;-76
2021/04/01 06:56:32;;;;;;;14.98;5.93;;;13.70;49.20;;;;;;5018267;28;20070;-75
2021/04/01 06:59:19;;;;;;;13.13;5.75;;;13.80;48.90;;;;;;5016835;28;20022;-75
2021/04/01 07:01:55;;;;;;;13.98;4.88;;;13.90;48.80;;;;;;5035277;28;20037;-76
2021/04/01 07:04:24;;;;;;;11.65;5.28;;;14.10;48.70;;;;;;5015902;28;20021;-76
2021/04/01 07:06:54;;;;;;;11.30;5.57;;;14.30;48.70;;;;;;5016234;28;20034;-76
2021/04/01 07:09:28;;;;;;;12.98;5.57;;;14.40;48.30;;;;;;5035460;28;20081;-75
2021/04/01 07:12:21;;;;;;;15.53;5.83;;;14.50;47.70;;;;;;5044534;28;20030;-77
2021/04/01 07:14:50;;;;;;;16.05;5.70;;;14.60;47.40;;;;;;5020399;28;20029;-75
2021/04/01 07:17:27;;;;;;;18.63;5.80;;;14.80;47.30;;;;;;5016585;28;20021;-77
2021/04/01 07:47:29;;;;;;;11.70;4.50;;;16.60;43.60;;;;;;5035390;28;20044;-73
2021/04/01 07:49:56;;;;;;;13.20;4.68;;;16.80;43.20;;;;;;5024994;28;20017;-76
2021/04/01 07:52:32;;;;;;;6.53;3.35;;;16.90;43.20;;;;;;5041539;28;20017;-75
2021/04/01 07:58:48;;;;;;;9.50;3.60;;;17.20;42.80;;;;;;5040598;28;20109;-75
2021/04/01 08:01:32;;;;;;;7.63;3.72;;;17.40;42.50;;;;;;5015827;28;20560;-75
2021/04/01 08:03:58;;;;;;;8.35;3.58;;;17.60;42.10;;;;;;5016091;28;20037;-76
2021/04/01 08:06:26;;;;;;;7.93;3.58;;;17.80;41.80;;;;;;4998681;28;20124;-74
2021/04/01 08:08:57;;;;;;;5.72;3.10;;;18.00;41.90;;;;;;5016068;28;20110;-75
2021/04/01 08:11:31;;;;;;;8.70;3.40;;;18.10;41.70;;;;;;4998420;28;20022;-77
2021/04/01 08:14:24;;;;;;;6.18;3.08;;;18.30;42.00;;;;;;4998409;28;20037;-76
2021/04/01 08:16:56;;;;;;;6.18;2.47;;;18.50;41.20;;;;;;5015526;28;20018;-75
2021/04/01 08:19:25;;;;;;;5.28;2.65;;;18.60;39.40;;;;;;4997660;28;20088;-75
2021/04/01 08:21:53;;;;;;;7.50;2.75;;;18.80;38.30;;;;;;5015713;28;20026;-75
2021/04/01 08:24:30;;;;;;;7.53;2.20;;;18.90;37.90;;;;;;5015891;28;20057;-75
2021/04/01 08:32:31;;;;;;;5.75;2.35;;;19.50;39.40;;;;;;5016194;28;20021;-75
2021/04/01 08:35:00;;;;;;;17.42;3.47;;;19.70;37.90;;;;;;5016172;28;20026;-74
2021/04/01 08:37:31;;;;;;;12.65;3.15;;;19.80;38.00;;;;;;4998465;28;20049;-75
2021/04/01 08:39:59;;;;;;;9.18;2.78;;;20.10;36.90;;;;;;4998619;28;20141;-75
2021/04/01 08:42:54;;;;;;;8.43;3.13;;;20.20;36.60;;;;;;5016910;28;20030;-74
2021/04/01 08:45:32;;;;;;;10.07;2.67;;;20.30;36.20;;;;;;4993881;28;20034;-74
2021/04/01 08:48:19;;;;;;;10.35;3.00;;;20.50;35.50;;;;;;5016395;28;20026;-74
2021/04/01 08:51:07;;;;;;;5.75;2.40;;;20.60;34.00;;;;;;5014934;28;20084;-75
2021/04/01 08:53:42;;;;;;;7.78;2.10;;;20.70;34.40;;;;;;5006530;28;20037;-74
2021/04/01 08:56:30;;;;;;;8.20;2.35;;;20.80;33.90;;;;;;4998377;28;20025;-74
2021/04/01 08:59:02;;;;;;;7.97;2.90;;;21.00;33.60;;;;;;4998216;28;20036;-74
2021/04/01 09:01:52;;;;;;;9.75;2.47;;;21.00;33.00;;;;;;4998180;28;20033;-75
2021/04/01 09:04:23;;;;;;;9.55;2.53;;;21.00;32.50;;;;;;5016120;28;20018;-74
2021/04/01 09:06:53;;;;;;;7.00;2.20;;;21.00;32.30;;;;;;5016090;28;20030;-73
2021/04/01 09:09:33;;;;;;;9.00;2.10;;;21.10;32.40;;;;;;5016140;28;20022;-75
2021/04/01 09:12:13;;;;;;;7.70;2.50;;;21.30;32.70;;;;;;4997897;28;20490;-74
2021/04/01 09:14:46;;;;;;;6.82;2.42;;;21.40;32.20;;;;;;5015860;28;20052;-74
2021/04/01 09:17:13;;;;;;;5.80;2.47;;;21.50;31.60;;;;;;5015918;28;20018;-73
2021/04/01 09:19:41;;;;;;;7.38;2.38;;;21.60;31.10;;;;;;5016095;28;20433;-73
2021/04/01 09:22:25;;;;;;;6.40;2.45;;;21.50;30.70;;;;;;5016162;28;20037;-76
2021/04/01 09:24:56;;;;;;;7.00;3.05;;;21.70;30.80;;;;;;5015173;28;20094;-75
2021/04/01 09:27:22;;;;;;;5.82;2.80;;;21.70;30.40;;;;;;5015411;28;20335;-74
2021/04/01 09:29:59;;;;;;;8.63;2.95;;;21.70;30.50;;;;;;4997426;28;20463;-74
2021/04/01 09:32:27;;;;;;;8.00;2.65;;;21.70;31.10;;;;;;5015240;28;20040;-74
2021/04/01 09:34:54;;;;;;;6.70;2.67;;;21.70;30.50;;;;;;5014982;28;20025;-76
2021/04/01 09:37:20;;;;;;;4.07;2.15;;;21.60;30.20;;;;;;5013276;28;20526;-74
2021/04/01 09:39:49;;;;;;;14.45;3.08;;;21.80;29.90;;;;;;5015049;28;20026;-76
2021/04/01 09:48:04;;;;;;;6.60;2.47;;;22.00;29.50;;;;;;5866242;23;19929;-76
2021/04/01 09:53:12;;;;;;;;;;;22.40;28.70;;;;;;5600669;23;20054;-78
2021/04/01 09:55:41;;;;;;;7.82;2.50;;;22.40;28.20;;;;;;5052018;28;19986;-77
2021/04/01 09:58:22;;;;;;;2.60;2.10;;;22.40;28.00;;;;;;5074071;28;20021;-77
2021/04/01 10:03:27;;;;;;;9.02;2.35;;;22.60;27.70;;;;;;5074008;28;20024;-76
2021/04/01 10:05:55;;;;;;;7.70;2.90;;;22.90;27.70;;;;;;5055934;28;20059;-77
2021/04/01 10:11:08;;;;;;;;;;;22.90;27.80;;;;;;5572536;23;20490;-77
2021/04/01 10:13:34;;;;;;;5.53;2.28;;;23.00;27.60;;;;;;5015979;28;19905;-77
2021/04/01 10:16:00;;;;;;;4.88;2.17;;;23.00;27.50;;;;;;5033725;28;20022;-77
2021/04/01 10:18:36;;;;;;;11.50;2.80;;;22.90;27.60;;;;;;5015923;28;20025;-78
2021/04/01 10:24:34;;;;;;;7.03;2.35;;;22.90;27.90;;;;;;5167779;23;21009;-77
2021/04/01 10:30:08;;;;;;;8.30;2.50;;;23.00;27.70;;;;;;4994120;28;20023;-76
2021/04/01 10:32:44;;;;;;;16.73;3.30;;;23.10;27.80;;;;;;5176814;23;20115;-77
2021/04/01 10:35:11;;;;;;;12.30;3.35;;;23.20;28.10;;;;;;5032443;28;20115;-75
2021/04/01 10:37:45;;;;;;;12.43;2.08;;;23.20;28.10;;;;;;5033289;28;20410;-77
2021/04/01 10:40:20;;;;;;;8.82;2.58;;;23.20;27.80;;;;;;5031968;28;20033;-77
2021/04/01 10:43:01;;;;;;;9.30;3.00;;;23.40;27.70;;;;;;5031620;28;20051;-77
2021/04/01 10:45:39;;;;;;;7.55;2.95;;;23.50;28.00;;;;;;5033056;28;20029;-76
2021/04/01 10:48:13;;;;;;;8.70;3.17;;;23.90;28.30;;;;;;5032933;28;20060;-76
2021/04/01 10:50:51;;;;;;;10.48;3.35;;;24.10;27.90;;;;;;5035194;28;20135;-77
2021/04/01 10:53:30;;;;;;;7.45;2.45;;;23.60;27.40;;;;;;5035170;28;20031;-77
2021/04/01 10:56:03;;;;;;;4.97;2.10;;;23.80;27.10;;;;;;5034803;28;20377;-77
2021/04/01 10:58:51;;;;;;;4.20;2.10;;;24.00;26.70;;;;;;5034620;28;20025;-78
2021/04/01 11:01:39;;;;;;;7.85;2.22;;;24.30;26.40;;;;;;5056275;23;20049;-75
2021/04/01 11:04:08;;;;;;;6.18;2.58;;;24.20;25.70;;;;;;5015019;28;20041;-75
2021/04/01 11:07:27;;;;;;;7.70;2.70;;;24.10;25.80;;;;;;5012328;28;20299;-76
2021/04/01 11:10:03;;;;;;;7.40;2.67;;;24.20;26.00;;;;;;5022705;23;20061;-76
2021/04/01 11:12:28;;;;;;;8.02;2.65;;;24.10;25.30;;;;;;5034974;28;20029;-73
2021/04/01 11:15:04;;;;;;;4.13;2.25;;;24.40;25.10;;;;;;5034596;28;20032;-75
2021/04/01 11:17:34;;;;;;;5.80;3.03;;;24.40;25.00;;;;;;5052549;28;20047;-76
2021/04/01 11:20:01;;;;;;;5.22;2.55;;;24.60;24.10;;;;;;5052091;28;20028;-75
2021/04/01 11:22:27;;;;;;;7.85;2.88;;;25.00;23.40;;;;;;5052727;28;20025;-74
2021/04/01 11:24:54;;;;;;;9.07;2.80;;;25.00;22.80;;;;;;5052497;28;20359;-74
2021/04/01 11:27:21;;;;;;;6.80;3.30;;;24.90;22.50;;;;;;5029245;28;20031;-75
2021/04/01 11:29:58;;;;;;;8.38;2.80;;;25.00;22.00;;;;;;5013642;28;20057;-77
2021/04/01 11:32:33;;;;;;;6.50;2.20;;;25.10;21.40;;;;;;5034467;28;20113;-77
2021/04/01 11:35:01;;;;;;;12.57;2.80;;;25.40;21.00;;;;;;5018769;28;20053;-75
2021/04/01 11:37:31;;;;;;;8.77;3.25;;;25.30;20.80;;;;;;5018961;28;20072;-77
2021/04/01 11:40:04;;;;;;;8.30;2.65;;;25.20;20.90;;;;;;5018746;28;20032;-75
2021/04/01 11:42:31;;;;;;;7.75;2.22;;;25.10;21.20;;;;;;5019116;28;20118;-78
2021/04/01 11:44:59;;;;;;;7.03;2.65;;;24.80;21.30;;;;;;5036257;28;20112;-78
2021/04/01 11:47:28;;;;;;;4.22;2.33;;;24.80;21.50;;;;;;5018625;28;20022;-76
2021/04/01 11:49:54;;;;;;;7.50;2.72;;;25.10;21.40;;;;;;5036425;28;20022;-74
2021/04/01 11:52:22;;;;;;;5.47;2.28;;;25.40;21.30;;;;;;5018854;28;20030;-76
2021/04/01 11:54:53;;;;;;;10.15;2.25;;;25.30;21.30;;;;;;5035453;28;20097;-74
2021/04/01 11:57:21;;;;;;;9.68;2.60;;;25.30;21.20;;;;;;5018646;28;20022;-74
2021/04/01 12:00:08;;;;;;;6.00;2.00;;;25.50;20.90;;;;;;5036156;28;20018;-76
2021/04/01 12:02:50;;;;;;;5.93;2.25;;;25.70;20.50;;;;;;5018558;28;20041;-74
2021/04/01 12:05:17;;;;;;;6.53;2.10;;;25.80;20.30;;;;;;5036380;28;20029;-76
2021/04/01 12:07:43;;;;;;;4.72;2.08;;;25.90;20.10;;;;;;5018596;28;20119;-76
2021/04/01 12:10:12;;;;;;;5.93;2.10;;;26.10;20.20;;;;;;5036049;28;20111;-74
2021/04/01 12:12:38;;;;;;;6.72;2.40;;;26.30;20.10;;;;;;5018570;28;20025;-75
2021/04/01 12:15:08;;;;;;;10.20;2.45;;;25.90;19.60;;;;;;5035838;28;20029;-76
2021/04/01 12:17:41;;;;;;;4.93;2.25;;;25.60;19.60;;;;;;5018398;28;20025;-76
2021/04/01 12:20:12;;;;;;;6.38;2.55;;;25.60;19.60;;;;;;5043886;23;20026;-76
2021/04/01 12:22:43;;;;;;;9.23;2.58;;;25.50;19.80;;;;;;4996987;28;20096;-75
2021/04/01 12:25:12;;;;;;;8.75;2.47;;;25.40;19.90;;;;;;5015933;28;20157;-76
2021/04/01 12:27:38;;;;;;;6.55;2.20;;;25.70;19.80;;;;;;5016211;28;20467;-75
2021/04/01 12:30:09;;;;;;;7.03;2.28;;;25.60;19.90;;;;;;5015895;28;20036;-75
2021/04/01 12:35:40;;;;;;;9.50;2.70;;;25.60;19.90;;;;;;4762868;26;20045;-76
2021/04/01 12:38:21;;;;;;;8.93;2.70;;;26.00;19.80;;;;;;5033766;28;20037;-75
2021/04/01 12:40:55;;;;;;;9.52;4.55;;;25.60;19.40;;;;;;5034367;28;20091;-77
2021/04/01 12:44:00;;;;;;;23.90;14.50;;;25.40;19.70;;;;;;5033856;28;20033;-76
2021/04/01 12:46:42;;;;;;;8.30;2.22;;;25.80;19.70;;;;;;5031303;28;20267;-76
2021/04/01 12:49:14;;;;;;;4.72;2.28;;;25.90;19.40;;;;;;5033891;28;20021;-76
2021/04/01 12:51:53;;;;;;;28.40;19.67;;;26.10;19.60;;;;;;5089445;23;20120;-75
2021/04/01 12:54:39;;;;;;;5.53;3.10;;;26.60;19.40;;;;;;5037469;28;20104;-76
2021/04/01 12:57:21;;;;;;;8.30;2.10;;;27.00;19.30;;;;;;5055054;28;20024;-75
2021/04/01 13:00:34;;;;;;;;;;;;;;;;;;;;;
2021/04/01 13:03:58;;;;;;;6.45;2.28;;;26.60;18.20;;;;;;5055214;28;20037;-76
2021/04/01 13:10:39;;;;;;;6.33;2.17;;;26.80;18.00;;;;;;4974082;28;20071;-76
2021/04/01 13:13:05;;;;;;;4.25;2.10;;;26.90;18.00;;;;;;5026580;28;20033;-75
2021/04/01 13:21:35;;;;;;;9.95;3.65;;;27.10;18.10;;;;;;5012777;28;20125;-76
2021/04/01 13:30:14;;;;;;;7.10;1.98;;;27.20;17.60;;;;;;5000920;28;20068;-77
2021/04/01 13:35:10;;;;;;;3.60;1.80;;;26.90;17.30;;;;;;5015089;28;20120;-76
2021/04/01 13:37:41;;;;;;;3.05;1.98;;;27.00;17.90;;;;;;5014841;28;20030;-77
2021/04/01 13:40:11;;;;;;;5.28;1.88;;;27.30;17.80;;;;;;5014831;28;20427;-78
2021/04/01 13:42:42;;;;;;;9.07;2.45;;;27.20;17.70;;;;;;5014721;28;20034;-77
2021/04/01 13:45:10;;;;;;;6.70;2.35;;;27.10;17.70;;;;;;5047001;23;20050;-75
2021/04/01 13:47:41;;;;;;;5.57;2.00;;;27.10;17.80;;;;;;5034345;28;20024;-74
2021/04/01 13:50:10;;;;;;;5.03;1.70;;;26.80;17.50;;;;;;5016495;28;20044;-73
2021/04/01 13:52:47;;;;;;;5.18;1.85;;;27.10;17.80;;;;;;5034186;28;20021;-73
2021/04/01 14:01:23;;;;;;;5.72;2.03;;;27.10;17.60;;;;;;5034031;28;20091;-74
2021/04/01 14:09:37;;;;;;;6.15;1.40;;;27.50;17.30;;;;;;5033955;28;20080;-75
2021/04/01 14:12:05;;;;;;;4.13;1.90;;;27.70;17.10;;;;;;5015877;28;20037;-74
2021/04/01 14:14:33;;;;;;;6.47;1.80;;;27.70;17.10;;;;;;5016094;28;20056;-74
2021/04/01 14:16:59;;;;;;;4.55;1.90;;;27.60;17.30;;;;;;5036356;28;20111;-74
2021/04/01 14:19:26;;;;;;;7.55;1.80;;;27.50;17.40;;;;;;5045590;28;20116;-74
2021/04/01 14:21:55;;;;;;;6.50;2.17;;;27.30;17.50;;;;;;5035275;28;20047;-74
2021/04/01 14:24:27;;;;;;;10.25;1.70;;;27.50;17.70;;;;;;5035790;28;20072;-74
2021/04/01 14:27:09;;;;;;;8.48;2.00;;;27.40;17.70;;;;;;5053260;28;20504;-74
2021/04/01 14:29:36;;;;;;;4.25;1.70;;;27.60;17.30;;;;;;5053382;28;20091;-75
2021/04/01 14:32:05;;;;;;;5.28;1.98;;;27.80;17.10;;;;;;5035401;28;20030;-75
2021/04/01 14:34:33;;;;;;;4.68;1.42;;;27.60;16.60;;;;;;5035324;28;20390;-74
2021/04/01 14:37:01;;;;;;;4.03;1.73;;;27.80;16.30;;;;;;5053237;28;20025;-74
2021/04/01 14:39:31;;;;;;;5.47;2.97;;;28.10;16.50;;;;;;5035155;28;20028;-75
2021/04/01 14:42:06;;;;;;;4.78;2.40;;;28.10;16.00;;;;;;5053133;28;20017;-74
2021/04/01 14:44:33;;;;;;;7.22;2.10;;;28.00;15.90;;;;;;5028555;28;20140;-74
2021/04/01 14:46:59;;;;;;;4.65;1.50;;;27.60;15.90;;;;;;5035178;28;20033;-74
2021/04/01 14:49:25;;;;;;;4.10;1.70;;;27.50;16.20;;;;;;5035215;28;20025;-74
2021/04/01 14:51:52;;;;;;;4.05;1.65;;;27.50;16.10;;;;;;5053076;28;20139;-72
2021/04/01 14:54:19;;;;;;;4.63;1.90;;;27.40;16.00;;;;;;5034935;28;20029;-73
2021/04/01 14:56:49;;;;;;;5.40;1.75;;;27.70;15.90;;;;;;5052818;28;20336;-73
2021/04/01 14:59:20;;;;;;;4.25;1.20;;;27.80;15.70;;;;;;5034458;28;20481;-72
2021/04/01 15:01:47;;;;;;;3.03;1.15;;;27.60;15.60;;;;;;5034681;28;20024;-73
2021/04/01 15:04:17;;;;;;;3.33;1.30;;;27.60;15.60;;;;;;5034485;28;20025;-73
2021/04/01 15:06:50;;;;;;;4.18;1.98;;;27.50;15.30;;;;;;5034286;28;20392;-73
2021/04/01 15:09:18;;;;;;;6.38;1.83;;;27.90;15.00;;;;;;5052681;28;20028;-73
2021/04/01 15:11:45;;;;;;;6.78;1.95;;;28.00;15.90;;;;;;5034347;28;20132;-73
2021/04/01 15:14:11;;;;;;;4.65;1.60;;;27.60;15.60;;;;;;5052735;28;20021;-75
2021/04/01 15:16:38;;;;;;;3.97;1.85;;;27.10;16.40;;;;;;5034840;28;20032;-72